Terminal Aerodrome Forecast
Issued by NWS Charleston, WV

Current Version | Previous Version | Text Only | Print | Product List | Glossary Off
Versions: 1 2 3 4 5 6 7 8 9 10 11 12 13 14 15 16 17 18 19 20 21 22 23 24 25 26

000
FTUS41 KRLX 271300 AAA
TAFBKW
TAF AMD
KBKW 271318Z 2713/2812 34007KT 2SM -SN BKN012
     FM271500 30007KT 4SM -SN BKN015
     FM271600 31008KT P6SM BKN020
     FM272300 32005KT P6SM SCT030=

USA.gov is the U.S. government's official web portal to all federal, state and local government web resources and services.